Terminal Aerodrome Forecast
Issued by NWS

Home | Current Version | Previous Version | Text Only | Print | Product List | Glossary On
Versions: 1 2 3 4 5 6 7 8 9 10 11 12 13 14 15 16 17 18 19 20 21 22 23 24 25 26 27 28 29 30 31 32 33 34 35 36 37 38
000
FTUS43 KDMX 012338
TAFOTM
TAF
KOTM 012338Z 0200/0224 28007KT P6SM BKN120
     FM021100 32005KT P6SM SCT200
     FM021600 12005KT P6SM BKN150
     FM022100 13008KT P6SM SCT014 BKN110=

USA.gov is the U.S. government's official web portal to all federal, state and local government web resources and services.